createdAt,value
2023-05-06T00:00:35.026Z,14.02
2023-05-06T00:01:35.036Z,14.04
2023-05-06T00:02:35.109Z,14.06
2023-05-06T00:03:35.101Z,14.07
2023-05-06T00:04:35.025Z,14.07
2023-05-06T00:05:34.975Z,14.10
2023-05-06T00:06:34.964Z,14.10
2023-05-06T00:07:34.941Z,14.14
2023-05-06T00:08:34.937Z,14.09
2023-05-06T00:09:34.923Z,14.06
2023-05-06T00:10:34.915Z,14.06
2023-05-06T00:11:34.897Z,14.02
2023-05-06T00:12:34.886Z,13.98
2023-05-06T00:13:34.866Z,13.96
2023-05-06T00:14:34.855Z,13.96
2023-05-06T00:15:34.848Z,13.96
2023-05-06T00:16:34.880Z,13.96
2023-05-06T00:17:34.842Z,13.98
2023-05-06T00:18:34.794Z,13.99
2023-05-06T00:19:34.805Z,13.98
2023-05-06T00:20:34.780Z,13.98
2023-05-06T00:21:34.758Z,13.99
2023-05-06T00:22:34.743Z,13.98
2023-05-06T00:23:34.751Z,13.95
2023-05-06T00:24:34.719Z,13.94
2023-05-06T00:25:34.717Z,13.95
2023-05-06T00:26:34.686Z,13.94
2023-05-06T00:27:34.684Z,13.92
2023-05-06T00:28:34.658Z,13.91
2023-05-06T00:29:34.682Z,13.92
2023-05-06T00:30:34.641Z,13.94
2023-05-06T00:31:34.723Z,13.91
2023-05-06T00:32:34.633Z,13.88
2023-05-06T00:33:34.610Z,13.91
2023-05-06T00:34:34.610Z,13.91
2023-05-06T00:35:34.591Z,13.92
2023-05-06T00:36:34.579Z,13.89
2023-05-06T00:37:34.554Z,13.91
2023-05-06T00:38:34.547Z,13.91
2023-05-06T00:39:34.546Z,13.91
2023-05-06T00:40:34.522Z,13.91
2023-05-06T00:41:34.504Z,13.91
2023-05-06T00:42:34.504Z,13.89
2023-05-06T00:43:34.479Z,13.89
2023-05-06T00:44:34.467Z,13.91
2023-05-06T00:45:34.516Z,13.91
2023-05-06T00:46:34.441Z,13.91
2023-05-06T00:47:34.458Z,13.89
2023-05-06T00:48:34.417Z,13.88
2023-05-06T00:49:34.414Z,13.87
2023-05-06T00:50:34.413Z,13.89
2023-05-06T00:51:34.372Z,13.89
2023-05-06T00:52:34.416Z,13.88
2023-05-06T00:53:34.362Z,13.84
2023-05-06T00:54:34.336Z,13.87
2023-05-06T00:55:34.330Z,13.87
2023-05-06T00:56:34.319Z,13.87
2023-05-06T00:57:34.309Z,13.87
2023-05-06T00:58:34.291Z,13.89
2023-05-06T00:59:34.291Z,13.91
2023-05-06T01:00:34.258Z,13.89
2023-05-06T01:01:34.352Z,13.94
2023-05-06T01:02:46.501Z,13.92
2023-05-06T01:03:35.304Z,13.91
2023-05-06T01:04:34.254Z,13.88
2023-05-06T01:05:34.210Z,13.88
2023-05-06T01:06:34.203Z,13.88
2023-05-06T01:07:34.179Z,13.88
2023-05-06T01:08:34.166Z,13.87
2023-05-06T01:09:34.172Z,13.87
2023-05-06T01:10:34.150Z,13.83
2023-05-06T01:11:34.146Z,13.83
2023-05-06T01:12:34.130Z,13.83
2023-05-06T01:13:34.106Z,13.83
2023-05-06T01:14:34.091Z,13.83
2023-05-06T01:15:34.088Z,13.81
2023-05-06T01:16:34.083Z,13.81
2023-05-06T01:17:34.101Z,13.81
2023-05-06T01:18:34.049Z,13.79
2023-05-06T01:19:34.033Z,13.79
2023-05-06T01:20:34.022Z,13.79
2023-05-06T01:21:34.010Z,13.79
2023-05-06T01:22:33.979Z,13.79
2023-05-06T01:23:33.967Z,13.79
2023-05-06T01:24:33.962Z,13.80
2023-05-06T01:25:33.958Z,13.81
2023-05-06T01:26:33.934Z,13.80
2023-05-06T01:27:33.916Z,13.80
2023-05-06T01:28:33.901Z,13.80
2023-05-06T01:29:33.893Z,13.80
2023-05-06T01:30:33.887Z,13.79
2023-05-06T01:31:33.995Z,13.73
2023-05-06T01:32:33.951Z,13.73
2023-05-06T01:33:33.838Z,13.71
2023-05-06T01:34:33.834Z,13.69
2023-05-06T01:35:33.821Z,13.70
2023-05-06T01:36:33.811Z,13.67
2023-05-06T01:37:33.783Z,13.65
2023-05-06T01:38:33.807Z,13.65
2023-05-06T01:39:33.773Z,13.67
2023-05-06T01:40:33.754Z,13.63
2023-05-06T01:41:33.736Z,13.65
2023-05-06T01:42:33.732Z,13.65
2023-05-06T01:43:33.704Z,13.63
2023-05-06T01:44:33.736Z,13.63
2023-05-06T01:45:33.707Z,13.63
2023-05-06T01:46:33.726Z,13.62
2023-05-06T01:47:33.682Z,13.62
2023-05-06T01:48:33.666Z,13.62
2023-05-06T01:49:33.647Z,13.61
2023-05-06T01:50:33.632Z,13.63
2023-05-06T01:51:33.610Z,13.62
2023-05-06T01:52:33.592Z,13.62
2023-05-06T01:53:33.603Z,13.62
2023-05-06T01:54:33.578Z,13.62
2023-05-06T01:55:33.566Z,13.62
2023-05-06T01:56:33.560Z,13.62
2023-05-06T01:57:33.547Z,13.63
2023-05-06T01:58:33.536Z,13.63
2023-05-06T01:59:33.523Z,13.67
2023-05-06T02:00:33.497Z,13.67
2023-05-06T02:01:33.533Z,13.65
2023-05-06T02:02:33.554Z,13.62
2023-05-06T02:03:33.597Z,13.59
2023-05-06T02:04:33.465Z,13.59
2023-05-06T02:05:33.434Z,13.59
2023-05-06T02:06:33.436Z,13.59
2023-05-06T02:07:33.423Z,13.59
2023-05-06T02:08:33.406Z,13.61
2023-05-06T02:09:33.367Z,13.62
2023-05-06T02:10:33.373Z,13.59
2023-05-06T02:11:33.350Z,13.59
2023-05-06T02:12:33.373Z,13.58
2023-05-06T02:13:33.370Z,13.58
2023-05-06T02:14:33.324Z,13.56
2023-05-06T02:15:33.294Z,13.54
2023-05-06T02:16:33.351Z,13.54
2023-05-06T02:17:33.326Z,13.51
2023-05-06T02:18:33.285Z,13.49
2023-05-06T02:19:33.257Z,13.49
2023-05-06T02:20:33.250Z,13.49
2023-05-06T02:21:33.251Z,13.49
2023-05-06T02:22:33.226Z,13.41
2023-05-06T02:23:33.201Z,13.41
2023-05-06T02:24:33.200Z,13.38
2023-05-06T02:25:33.185Z,13.38
2023-05-06T02:26:33.188Z,13.38
2023-05-06T02:27:33.146Z,13.36
2023-05-06T02:28:33.144Z,13.30
2023-05-06T02:29:33.130Z,13.30
2023-05-06T02:30:33.113Z,13.27
2023-05-06T02:31:33.138Z,13.25
2023-05-06T02:32:33.156Z,13.27
2023-05-06T02:33:33.080Z,13.27
2023-05-06T02:34:33.060Z,13.25
2023-05-06T02:35:33.059Z,13.24
2023-05-06T02:36:33.044Z,13.24
2023-05-06T02:37:33.021Z,13.25
2023-05-06T02:38:33.015Z,13.24
2023-05-06T02:39:33.005Z,13.22
2023-05-06T02:40:33.002Z,13.22
2023-05-06T02:41:32.983Z,13.22
2023-05-06T02:42:33.028Z,13.24
2023-05-06T02:43:32.968Z,13.24
2023-05-06T02:44:32.951Z,13.25
2023-05-06T02:45:32.952Z,13.27
2023-05-06T02:46:32.923Z,13.29
2023-05-06T02:47:32.922Z,13.32
2023-05-06T02:48:32.882Z,13.32
2023-05-06T02:49:32.895Z,13.33
2023-05-06T02:50:32.923Z,13.32
2023-05-06T02:51:32.845Z,13.30
2023-05-06T02:52:32.833Z,13.27
2023-05-06T02:53:32.819Z,13.29
2023-05-06T02:54:32.827Z,13.30
2023-05-06T02:55:32.813Z,13.32
2023-05-06T02:56:32.782Z,13.32
2023-05-06T02:57:32.775Z,13.33
2023-05-06T02:58:32.765Z,13.36
2023-05-06T02:59:32.752Z,13.33
2023-05-06T03:00:32.748Z,13.32
2023-05-06T03:01:32.774Z,13.32
2023-05-06T03:02:32.728Z,13.30
2023-05-06T03:03:32.703Z,13.30
2023-05-06T03:04:32.810Z,13.32
2023-05-06T03:05:32.676Z,13.33
2023-05-06T03:06:32.654Z,13.33
2023-05-06T03:07:32.650Z,13.33
2023-05-06T03:08:32.643Z,13.33
2023-05-06T03:09:32.616Z,13.36
2023-05-06T03:10:32.621Z,13.33
2023-05-06T03:11:32.596Z,13.33
2023-05-06T03:12:32.683Z,13.33
2023-05-06T03:13:32.579Z,13.33
2023-05-06T03:14:32.549Z,13.36
2023-05-06T03:15:32.539Z,13.36
2023-05-06T03:16:32.613Z,13.37
2023-05-06T03:17:32.601Z,13.38
2023-05-06T03:18:32.504Z,13.37
2023-05-06T03:19:32.492Z,13.36
2023-05-06T03:20:32.479Z,13.36
2023-05-06T03:21:32.555Z,13.36
2023-05-06T03:22:32.468Z,13.32
2023-05-06T03:23:32.468Z,13.30
2023-05-06T03:24:32.446Z,13.30
2023-05-06T03:25:32.533Z,13.29
2023-05-06T03:26:32.405Z,13.29
2023-05-06T03:27:32.400Z,13.30
2023-05-06T03:28:32.400Z,13.27
2023-05-06T03:29:32.355Z,13.27
2023-05-06T03:30:32.402Z,13.29
2023-05-06T03:31:32.447Z,13.29
2023-05-06T03:32:32.389Z,13.32
2023-05-06T03:33:32.309Z,13.33
2023-05-06T03:34:32.307Z,13.33
2023-05-06T03:35:32.288Z,13.36
2023-05-06T03:36:32.283Z,13.36
2023-05-06T03:37:32.275Z,13.36
2023-05-06T03:38:32.261Z,13.36
2023-05-06T03:39:32.238Z,13.37
2023-05-06T03:40:32.230Z,13.37
2023-05-06T03:41:32.235Z,13.37
2023-05-06T03:42:32.223Z,13.38
2023-05-06T03:43:32.186Z,13.38
2023-05-06T03:44:32.173Z,13.38
2023-05-06T03:45:32.153Z,13.38
2023-05-06T03:46:32.237Z,13.40
2023-05-06T03:47:32.161Z,13.40
2023-05-06T03:48:32.127Z,13.40
2023-05-06T03:49:32.111Z,13.40
2023-05-06T04:02:53.769Z,13.29
2023-05-06T04:03:53.735Z,13.24
2023-05-06T04:04:53.660Z,13.22
2023-05-06T04:05:53.663Z,13.21
2023-05-06T04:06:53.651Z,13.18
2023-05-06T04:07:53.626Z,13.18
2023-05-06T04:08:53.614Z,13.18
2023-05-06T04:09:53.612Z,13.17
2023-05-06T04:10:53.601Z,13.15
2023-05-06T04:11:53.585Z,13.15
2023-05-06T04:12:53.618Z,13.12
2023-05-06T04:13:53.560Z,13.11
2023-05-06T04:14:53.558Z,13.07
2023-05-06T04:15:53.557Z,13.07
2023-05-06T04:16:53.519Z,13.06
2023-05-06T04:17:53.500Z,13.04
2023-05-06T04:18:53.489Z,13.02
2023-05-06T04:19:53.481Z,12.99
2023-05-06T04:20:53.498Z,12.99
2023-05-06T04:21:53.442Z,12.97
2023-05-06T04:22:53.426Z,12.97
2023-05-06T04:23:53.428Z,12.96
2023-05-06T04:24:53.396Z,12.95
2023-05-06T04:25:53.384Z,12.96
2023-05-06T04:26:53.374Z,12.95
2023-05-06T04:27:53.375Z,12.96
2023-05-06T04:28:53.396Z,12.96
2023-05-06T04:29:53.360Z,12.95
2023-05-06T04:30:53.336Z,12.93
2023-05-06T04:31:53.367Z,12.93
2023-05-06T04:32:53.346Z,12.92
2023-05-06T04:33:53.294Z,12.89
2023-05-06T04:34:53.301Z,12.88
2023-05-06T04:35:53.258Z,12.89
2023-05-06T04:36:53.249Z,12.89
2023-05-06T04:37:53.244Z,12.92
2023-05-06T04:38:53.251Z,12.95
2023-05-06T04:39:53.209Z,12.96
2023-05-06T04:40:53.192Z,12.96
2023-05-06T04:41:53.170Z,12.95
2023-05-06T04:42:53.200Z,12.96
2023-05-06T04:43:53.155Z,12.97
2023-05-06T04:44:53.158Z,12.96
2023-05-06T04:45:53.193Z,12.96
2023-05-06T04:46:53.119Z,12.96
2023-05-06T04:47:53.182Z,12.95
2023-05-06T04:48:53.101Z,12.95
2023-05-06T04:49:53.080Z,12.95
2023-05-06T04:50:53.093Z,12.97
2023-05-06T04:51:53.059Z,12.97
2023-05-06T04:52:53.074Z,12.99
2023-05-06T04:53:53.036Z,13.00
2023-05-06T04:54:53.015Z,13.04
2023-05-06T04:55:53.008Z,13.06
2023-05-06T04:56:52.999Z,13.11
2023-05-06T04:57:52.975Z,13.14
2023-05-06T04:58:52.976Z,13.17
2023-05-06T04:59:52.947Z,13.20
2023-05-06T05:00:52.937Z,13.27
2023-05-06T05:01:52.933Z,13.32
2023-05-06T05:02:52.969Z,13.32
2023-05-06T05:03:52.903Z,13.33
2023-05-06T05:04:52.880Z,13.37
2023-05-06T05:05:52.886Z,13.40
2023-05-06T05:06:52.880Z,13.41
2023-05-06T05:07:52.866Z,13.41
2023-05-06T05:08:54.352Z,13.43
2023-05-06T05:09:52.827Z,13.46
2023-05-06T05:10:52.825Z,13.47
2023-05-06T05:11:52.793Z,13.47
2023-05-06T05:12:52.837Z,13.49
2023-05-06T05:13:54.284Z,13.46
2023-05-06T05:14:52.900Z,13.46
2023-05-06T05:15:52.773Z,13.46
2023-05-06T05:16:52.745Z,13.46
2023-05-06T05:17:52.761Z,13.47
2023-05-06T05:18:52.712Z,13.51
2023-05-06T05:19:52.703Z,13.54
2023-05-06T05:20:52.690Z,13.55
2023-05-06T05:21:52.672Z,13.56
2023-05-06T05:22:52.668Z,13.59
2023-05-06T05:23:52.648Z,13.58
2023-05-06T05:24:52.667Z,13.59
2023-05-06T05:25:52.615Z,13.61
2023-05-06T05:26:52.594Z,13.62
2023-05-06T05:27:52.603Z,13.65
2023-05-06T05:28:52.577Z,13.67
2023-05-06T05:29:52.557Z,13.70
2023-05-06T05:30:52.607Z,13.70
2023-05-06T05:31:52.531Z,13.71
2023-05-06T05:32:52.683Z,13.71
2023-05-06T05:33:52.573Z,13.73
2023-05-06T05:34:52.521Z,13.76
2023-05-06T05:35:52.499Z,13.74
2023-05-06T05:36:52.471Z,13.76
2023-05-06T05:37:52.461Z,13.76
2023-05-06T05:38:52.469Z,13.77
2023-05-06T05:39:52.440Z,13.79
2023-05-06T05:40:52.442Z,13.80
2023-05-06T05:41:52.405Z,13.83
2023-05-06T05:42:52.386Z,13.84
2023-05-06T05:43:52.380Z,13.87
2023-05-06T05:44:52.370Z,13.89
2023-05-06T05:45:52.373Z,13.91
2023-05-06T05:46:52.409Z,13.92
2023-05-06T05:47:52.342Z,13.95
2023-05-06T05:48:52.348Z,13.99
2023-05-06T05:49:52.306Z,14.01
2023-05-06T05:50:52.310Z,14.02
2023-05-06T05:51:52.276Z,14.02
2023-05-06T05:52:52.310Z,14.06
2023-05-06T05:53:52.273Z,14.07
2023-05-06T05:54:52.244Z,14.13
2023-05-06T05:55:52.240Z,14.16
2023-05-06T05:56:52.226Z,14.20
2023-05-06T05:57:52.208Z,14.21
2023-05-06T05:58:52.187Z,14.17
2023-05-06T05:59:52.182Z,14.19
2023-05-06T06:00:52.177Z,14.24
2023-05-06T06:01:52.172Z,14.27
2023-05-06T06:02:52.215Z,14.27
2023-05-06T06:03:52.457Z,14.28
2023-05-06T06:04:52.165Z,14.31
2023-05-06T06:05:52.101Z,14.35
2023-05-06T06:06:52.100Z,14.38
2023-05-06T06:07:52.076Z,14.37
2023-05-06T06:08:52.081Z,14.35
2023-05-06T06:09:52.047Z,14.38
2023-05-06T06:10:52.052Z,14.35
2023-05-06T06:11:52.019Z,14.35
2023-05-06T06:12:52.240Z,14.38
2023-05-06T06:13:51.991Z,14.37
2023-05-06T06:14:51.987Z,14.43
2023-05-06T06:15:52.121Z,14.46
2023-05-06T06:16:52.036Z,14.50
2023-05-06T06:17:51.976Z,14.54
2023-05-06T06:18:51.991Z,14.61
2023-05-06T06:19:51.908Z,14.61
2023-05-06T06:20:53.387Z,14.61
2023-05-06T06:21:51.905Z,14.64
2023-05-06T06:22:51.861Z,14.68
2023-05-06T06:23:51.857Z,14.68
2023-05-06T06:24:51.840Z,14.71
2023-05-06T06:25:51.855Z,14.74
2023-05-06T06:26:51.834Z,14.75
2023-05-06T06:27:51.829Z,14.69
2023-05-06T06:28:51.852Z,14.69
2023-05-06T06:29:51.778Z,14.72
2023-05-06T06:30:51.787Z,14.74
2023-05-06T06:31:51.839Z,14.78
2023-05-06T06:32:51.783Z,14.83
2023-05-06T06:33:51.735Z,14.81
2023-05-06T06:34:51.767Z,14.83
2023-05-06T06:35:51.702Z,14.86
2023-05-06T06:36:51.675Z,14.87
2023-05-06T06:37:51.680Z,14.90
2023-05-06T06:38:51.661Z,14.93
2023-05-06T06:39:51.648Z,14.94
2023-05-06T06:40:51.657Z,14.93
2023-05-06T06:41:51.618Z,14.94
2023-05-06T06:42:51.628Z,14.95
2023-05-06T06:43:51.592Z,14.94
2023-05-06T06:44:51.592Z,14.94
2023-05-06T06:45:51.657Z,14.91
2023-05-06T06:46:51.554Z,14.95
2023-05-06T06:47:51.603Z,14.98
2023-05-06T06:48:51.524Z,14.98
2023-05-06T06:49:51.515Z,15.02
2023-05-06T06:50:51.516Z,15.01
2023-05-06T06:51:51.483Z,15.02
2023-05-06T06:52:51.489Z,15.03
2023-05-06T06:53:51.463Z,15.05
2023-05-06T06:54:51.492Z,15.06
2023-05-06T06:55:51.427Z,15.11
2023-05-06T06:56:51.433Z,15.15
2023-05-06T06:57:51.404Z,15.21
2023-05-06T06:58:53.291Z,15.28
2023-05-06T06:59:51.446Z,15.30
2023-05-06T07:00:51.455Z,15.38
2023-05-06T07:01:51.354Z,15.42
2023-05-06T07:02:51.381Z,15.43
2023-05-06T07:03:51.361Z,15.42
2023-05-06T07:04:51.309Z,15.41
2023-05-06T07:05:51.288Z,15.41
2023-05-06T07:06:51.290Z,15.38
2023-05-06T07:07:51.284Z,15.36
2023-05-06T07:08:51.279Z,15.39
2023-05-06T07:09:51.254Z,15.33
2023-05-06T07:10:51.230Z,15.27
2023-05-06T07:11:51.219Z,15.21
2023-05-06T07:12:51.258Z,15.20
2023-05-06T07:13:51.198Z,15.21
2023-05-06T07:14:51.177Z,15.21
2023-05-06T07:15:51.196Z,15.24
2023-05-06T07:16:51.668Z,15.27
2023-05-06T07:17:51.175Z,15.33
2023-05-06T07:18:51.122Z,15.39
2023-05-06T07:19:51.118Z,15.45
2023-05-06T07:20:51.102Z,15.48
2023-05-06T07:21:51.075Z,15.51
2023-05-06T07:22:51.090Z,15.52
2023-05-06T07:23:51.045Z,15.54
2023-05-06T07:24:51.054Z,15.56
2023-05-06T07:25:51.038Z,15.56
2023-05-06T07:26:51.035Z,15.57
2023-05-06T07:27:51.012Z,15.56
2023-05-06T07:28:51.009Z,15.51
2023-05-06T07:29:50.959Z,15.48
2023-05-06T07:30:50.999Z,15.46
2023-05-06T07:31:50.945Z,15.45
2023-05-06T07:32:50.973Z,15.45
2023-05-06T07:33:50.923Z,15.43
2023-05-06T07:34:50.915Z,15.39
2023-05-06T07:35:50.945Z,15.36
2023-05-06T07:36:50.886Z,15.39
2023-05-06T07:37:50.872Z,15.43
2023-05-06T07:38:50.854Z,15.49
2023-05-06T07:39:50.847Z,15.52
2023-05-06T07:40:50.836Z,15.57
2023-05-06T07:41:50.817Z,15.57
2023-05-06T07:42:50.805Z,15.56
2023-05-06T07:43:50.787Z,15.59
2023-05-06T07:44:50.780Z,15.60
2023-05-06T07:45:50.925Z,15.60
2023-05-06T07:46:50.871Z,15.59
2023-05-06T07:47:50.834Z,15.59
2023-05-06T07:48:50.729Z,15.57
2023-05-06T07:49:50.713Z,15.60
2023-05-06T07:50:50.696Z,15.66
2023-05-06T07:51:50.790Z,15.72
2023-05-06T07:52:50.667Z,15.72
2023-05-06T07:53:50.644Z,15.75
2023-05-06T07:54:50.643Z,15.76
2023-05-06T07:55:50.617Z,15.79
2023-05-06T07:56:50.610Z,15.84
2023-05-06T07:57:50.590Z,15.86
2023-05-06T07:58:50.598Z,15.89
2023-05-06T07:59:50.591Z,15.88
2023-05-06T08:00:50.555Z,15.86
2023-05-06T08:01:50.549Z,15.85
2023-05-06T08:02:50.611Z,15.89
2023-05-06T08:03:50.674Z,15.88
2023-05-06T08:04:51.895Z,15.85
2023-05-06T08:05:50.482Z,15.88
2023-05-06T08:06:50.478Z,15.85
2023-05-06T08:07:50.464Z,15.88
2023-05-06T08:08:50.463Z,15.93
2023-05-06T08:09:50.439Z,15.86
2023-05-06T08:10:50.414Z,15.89
2023-05-06T08:11:50.413Z,15.99
2023-05-06T08:12:50.429Z,16.07
2023-05-06T08:13:50.397Z,16.12
2023-05-06T08:14:50.362Z,16.15
2023-05-06T08:15:50.371Z,16.15
2023-05-06T08:16:50.438Z,16.18
2023-05-06T08:17:50.360Z,16.23
2023-05-06T08:18:50.325Z,16.30
2023-05-06T08:19:50.318Z,16.33
2023-05-06T08:20:50.282Z,16.31
2023-05-06T08:21:50.285Z,16.34
2023-05-06T08:22:50.281Z,16.35
2023-05-06T08:23:50.258Z,16.41
2023-05-06T08:24:50.240Z,16.41
2023-05-06T08:25:50.235Z,16.44
2023-05-06T08:26:50.221Z,16.53
2023-05-06T08:27:50.213Z,16.67
2023-05-06T08:28:50.182Z,16.73
2023-05-06T08:29:50.186Z,16.80
2023-05-06T08:30:50.167Z,16.86
2023-05-06T08:31:50.187Z,16.86
2023-05-06T08:32:50.195Z,16.88
2023-05-06T08:33:50.516Z,16.86
2023-05-06T08:34:50.130Z,16.86
2023-05-06T08:35:50.095Z,16.81
2023-05-06T08:36:50.082Z,16.80
2023-05-06T08:37:50.087Z,16.75
2023-05-06T08:38:50.059Z,16.75
2023-05-06T08:39:50.052Z,16.78
2023-05-06T08:40:50.026Z,16.85
2023-05-06T08:41:50.035Z,16.92
2023-05-06T08:42:50.009Z,16.88
2023-05-06T08:43:49.993Z,16.90
2023-05-06T08:44:50.024Z,16.89
2023-05-06T08:45:49.980Z,16.86
2023-05-06T08:46:49.961Z,16.90
2023-05-06T08:47:49.967Z,16.90
2023-05-06T08:48:49.926Z,16.92
2023-05-06T08:49:49.914Z,16.99
2023-05-06T08:50:49.904Z,17.03
2023-05-06T08:51:49.897Z,17.14
2023-05-06T08:52:49.865Z,17.23
2023-05-06T08:53:49.865Z,17.28
2023-05-06T08:54:49.855Z,17.28
2023-05-06T08:55:49.857Z,17.32
2023-05-06T08:56:49.824Z,17.23
2023-05-06T08:57:49.815Z,17.18
2023-05-06T08:58:49.810Z,17.25
2023-05-06T08:59:49.783Z,17.30
2023-05-06T09:00:49.805Z,17.38
2023-05-06T09:01:49.776Z,17.44
2023-05-06T09:02:49.826Z,17.50
2023-05-06T09:03:49.774Z,17.48
2023-05-06T09:04:49.722Z,17.47
2023-05-06T09:05:49.724Z,17.40
2023-05-06T09:06:49.683Z,17.25
2023-05-06T09:07:49.679Z,17.28
2023-05-06T09:08:49.647Z,17.29
2023-05-06T09:09:49.671Z,17.36
2023-05-06T09:10:49.624Z,17.47
2023-05-06T09:11:49.622Z,17.54
2023-05-06T09:12:49.612Z,17.62
2023-05-06T09:13:49.600Z,17.70
2023-05-06T09:14:49.600Z,17.79
2023-05-06T09:15:49.576Z,17.88
2023-05-06T09:16:49.582Z,17.99
2023-05-06T09:17:49.555Z,17.99
2023-05-06T09:18:49.528Z,18.06
2023-05-06T09:19:49.526Z,18.02
2023-05-06T09:20:49.561Z,18.02
2023-05-06T09:21:49.514Z,18.09
2023-05-06T09:22:49.475Z,18.13
2023-05-06T09:23:49.470Z,18.18
2023-05-06T09:24:49.466Z,18.21
2023-05-06T09:25:49.444Z,18.18
2023-05-06T09:26:49.433Z,18.18
2023-05-06T09:27:49.414Z,18.12
2023-05-06T09:28:49.410Z,18.17
2023-05-06T09:29:49.390Z,18.10
2023-05-06T09:30:49.399Z,18.00
2023-05-06T09:31:49.361Z,18.00
2023-05-06T09:32:49.469Z,18.06
2023-05-06T09:33:49.350Z,18.15
2023-05-06T09:34:49.315Z,18.17
2023-05-06T09:35:49.324Z,18.21
2023-05-06T09:36:49.422Z,18.27
2023-05-06T09:37:49.300Z,18.31
2023-05-06T09:38:49.270Z,18.39
2023-05-06T09:39:49.254Z,18.49
2023-05-06T09:40:49.247Z,18.58
2023-05-06T09:41:49.231Z,18.57
2023-05-06T09:42:49.240Z,18.43
2023-05-06T09:43:49.227Z,18.36
2023-05-06T09:44:49.186Z,18.36
2023-05-06T09:45:49.251Z,18.40
2023-05-06T09:46:49.171Z,18.44
2023-05-06T10:03:23.840Z,19.28
2023-05-06T10:04:25.526Z,19.36
2023-05-06T10:05:23.707Z,19.43
2023-05-06T10:06:23.665Z,19.60
2023-05-06T10:07:23.618Z,19.75
2023-05-06T10:08:23.620Z,19.93
2023-05-06T10:09:23.602Z,20.03
2023-05-06T10:10:25.386Z,20.10
2023-05-06T10:11:23.610Z,20.18
2023-05-06T10:12:23.572Z,20.27
2023-05-06T10:13:23.668Z,20.39
2023-05-06T10:14:23.544Z,20.50
2023-05-06T10:15:23.536Z,20.59
2023-05-06T10:16:23.553Z,20.49
2023-05-06T10:17:23.508Z,20.39
2023-05-06T10:18:23.501Z,20.46
2023-05-06T10:19:23.458Z,20.54
2023-05-06T10:20:23.467Z,20.66
2023-05-06T10:21:23.544Z,20.81
2023-05-06T10:22:23.442Z,20.90
2023-05-06T10:23:23.415Z,20.96
2023-05-06T10:24:23.437Z,21.06
2023-05-06T10:25:23.407Z,21.14
2023-05-06T10:26:23.411Z,21.02
2023-05-06T10:27:23.368Z,20.91
2023-05-06T10:28:27.616Z,20.96
2023-05-06T10:29:24.350Z,20.99
2023-05-06T10:30:23.328Z,20.96
2023-05-06T10:31:23.366Z,21.09
2023-05-06T10:32:23.347Z,21.06
2023-05-06T10:33:23.298Z,20.98
2023-05-06T10:34:23.288Z,20.99
2023-05-06T10:35:23.270Z,21.01
2023-05-06T10:36:23.247Z,20.90
2023-05-06T10:37:23.235Z,20.84
2023-05-06T10:38:23.225Z,20.86
2023-05-06T10:39:23.212Z,20.87
2023-05-06T10:40:23.199Z,20.96
2023-05-06T10:41:23.196Z,20.96
2023-05-06T10:42:23.165Z,20.96
2023-05-06T10:43:23.170Z,21.04
2023-05-06T10:44:23.156Z,21.09
2023-05-06T10:45:23.141Z,21.17
2023-05-06T10:46:23.130Z,21.27
2023-05-06T10:47:23.131Z,21.36
2023-05-06T10:48:23.095Z,21.44
2023-05-06T10:49:23.074Z,21.60
2023-05-06T10:50:23.075Z,21.78
2023-05-06T10:51:23.047Z,21.66
2023-05-06T10:52:23.031Z,21.60
2023-05-06T10:53:23.024Z,21.36
2023-05-06T10:54:23.016Z,21.36
2023-05-06T10:55:22.992Z,21.42
2023-05-06T10:56:22.974Z,21.53
2023-05-06T10:57:22.971Z,21.44
2023-05-06T10:58:22.960Z,21.46
2023-05-06T10:59:22.941Z,21.46
2023-05-06T11:00:22.926Z,21.66
2023-05-06T11:01:22.979Z,21.72
2023-05-06T11:02:23.074Z,21.48
2023-05-06T11:03:23.013Z,21.44
2023-05-06T11:04:22.882Z,21.26
2023-05-06T11:05:22.852Z,21.20
2023-05-06T11:06:22.866Z,21.16
2023-05-06T11:07:22.860Z,21.27
2023-05-06T11:08:22.820Z,21.48
2023-05-06T11:09:22.820Z,21.71
2023-05-06T11:10:22.795Z,21.74
2023-05-06T11:11:22.778Z,21.60
2023-05-06T11:12:22.800Z,21.72
2023-05-06T11:13:22.845Z,21.91
2023-05-06T11:14:22.732Z,21.97
2023-05-06T11:15:22.716Z,21.88
2023-05-06T11:16:22.804Z,21.88
2023-05-06T11:17:22.779Z,22.06
2023-05-06T11:18:22.667Z,22.25
2023-05-06T11:19:22.727Z,22.44
2023-05-06T11:20:22.679Z,22.54
2023-05-06T11:21:22.651Z,22.52
2023-05-06T11:22:22.647Z,22.37
2023-05-06T11:23:22.615Z,22.14
2023-05-06T11:24:22.628Z,22.09
2023-05-06T11:25:22.594Z,22.06
2023-05-06T11:26:22.583Z,22.06
2023-05-06T11:27:22.558Z,22.06
2023-05-06T11:28:22.546Z,22.10
2023-05-06T11:29:22.535Z,22.10
2023-05-06T11:30:22.599Z,22.09
2023-05-06T11:31:22.528Z,21.91
2023-05-06T11:32:22.563Z,21.91
2023-05-06T11:33:22.513Z,22.04
2023-05-06T11:34:22.472Z,22.27
2023-05-06T11:35:22.460Z,22.47
2023-05-06T11:36:22.473Z,22.44
2023-05-06T11:37:22.462Z,22.17
2023-05-06T11:38:22.427Z,22.04
2023-05-06T11:39:22.403Z,22.09
2023-05-06T11:40:22.406Z,22.09
2023-05-06T11:41:22.373Z,21.82
2023-05-06T11:42:22.350Z,21.79
2023-05-06T11:43:22.354Z,21.71
2023-05-06T11:44:22.334Z,21.67
2023-05-06T11:45:22.328Z,21.66
2023-05-06T11:46:22.394Z,21.78
2023-05-06T11:47:22.310Z,21.99
2023-05-06T11:48:22.285Z,22.09
2023-05-06T11:49:22.261Z,22.32
2023-05-06T11:50:22.267Z,22.59
2023-05-06T11:51:22.237Z,22.80
2023-05-06T11:52:22.244Z,22.82
2023-05-06T11:53:22.213Z,22.65
2023-05-06T11:54:22.204Z,22.57
2023-05-06T11:55:22.194Z,22.35
2023-05-06T11:56:22.173Z,21.98
2023-05-06T11:57:22.146Z,21.75
2023-05-06T11:58:22.146Z,21.66
2023-05-06T11:59:22.210Z,21.66
2023-05-06T12:00:22.133Z,21.61
2023-05-06T12:01:22.112Z,21.41
2023-05-06T12:02:22.179Z,21.30
2023-05-06T12:03:22.253Z,21.27
2023-05-06T12:04:22.125Z,21.27
2023-05-06T12:05:22.059Z,21.36
2023-05-06T12:06:23.376Z,21.46
2023-05-06T12:07:22.024Z,21.60
2023-05-06T12:08:27.459Z,21.72
2023-05-06T12:09:23.011Z,21.82
2023-05-06T12:10:21.998Z,21.94
2023-05-06T12:11:21.976Z,21.94
2023-05-06T12:12:21.964Z,21.97
2023-05-06T12:13:22.016Z,21.99
2023-05-06T12:14:21.937Z,21.99
2023-05-06T12:15:21.920Z,22.16
2023-05-06T12:16:21.946Z,22.13
2023-05-06T12:17:21.932Z,22.09
2023-05-06T12:18:21.880Z,22.01
2023-05-06T12:19:21.856Z,21.94
2023-05-06T12:20:21.862Z,21.81
2023-05-06T12:21:21.811Z,21.60
2023-05-06T12:22:21.827Z,21.35
2023-05-06T12:23:21.803Z,21.30
2023-05-06T12:24:21.791Z,21.35
2023-05-06T12:25:21.812Z,21.41
2023-05-06T12:26:21.764Z,21.46
2023-05-06T12:27:21.757Z,21.71
2023-05-06T12:28:21.760Z,21.94
2023-05-06T12:29:21.732Z,22.12
2023-05-06T12:30:21.731Z,22.07
2023-05-06T12:31:21.855Z,22.01
2023-05-06T12:32:21.709Z,21.90
2023-05-06T12:33:21.673Z,21.85
2023-05-06T12:34:21.661Z,21.95
2023-05-06T12:35:21.659Z,22.07
2023-05-06T12:36:21.648Z,21.99
2023-05-06T12:37:21.631Z,22.14
2023-05-06T12:38:21.619Z,22.39
2023-05-06T12:39:21.636Z,22.35
2023-05-06T12:40:21.678Z,22.27
2023-05-06T12:41:21.638Z,22.13
2023-05-06T12:42:21.577Z,22.19
2023-05-06T12:43:21.552Z,22.39
2023-05-06T12:44:21.569Z,22.69
2023-05-06T12:45:21.552Z,23.01
2023-05-06T12:46:21.755Z,23.31
2023-05-06T12:47:21.538Z,23.55
2023-05-06T12:48:21.576Z,23.79
2023-05-06T12:49:21.494Z,23.98
2023-05-06T12:50:21.520Z,24.14
2023-05-06T12:51:21.502Z,24.32
2023-05-06T12:52:21.446Z,24.27
2023-05-06T12:53:21.454Z,24.19
2023-05-06T12:54:21.422Z,24.13
2023-05-06T12:55:21.453Z,24.19
2023-05-06T12:56:21.407Z,24.37
2023-05-06T12:57:21.421Z,24.01
2023-05-06T12:58:21.371Z,24.16
2023-05-06T12:59:21.347Z,24.37
2023-05-06T13:00:21.387Z,24.67
2023-05-06T13:01:21.425Z,25.02
2023-05-06T13:02:21.345Z,25.42
2023-05-06T13:03:21.505Z,25.54
2023-05-06T13:04:21.295Z,25.72
2023-05-06T13:05:21.303Z,25.49
2023-05-06T13:06:21.265Z,25.42
2023-05-06T13:07:21.242Z,25.12
2023-05-06T13:08:21.230Z,24.91
2023-05-06T13:09:21.231Z,24.77
2023-05-06T13:10:21.212Z,24.75
2023-05-06T13:11:21.189Z,24.83
2023-05-06T13:12:21.185Z,24.98
2023-05-06T13:13:21.255Z,25.10
2023-05-06T13:14:21.163Z,25.42
2023-05-06T13:15:21.141Z,25.43
2023-05-06T13:16:21.133Z,25.34
2023-05-06T13:17:21.241Z,25.37
2023-05-06T13:18:21.110Z,25.22
2023-05-06T13:19:31.613Z,25.00
2023-05-06T13:20:22.120Z,25.00